createdAt,value
2018-08-06T00:00:41.546Z,63.22
2018-08-06T00:03:10.222Z,63.49
2018-08-06T00:05:38.626Z,63.11
2018-08-06T00:08:07.531Z,63.02
2018-08-06T00:10:35.930Z,63.24
2018-08-06T00:13:04.355Z,63.42
2018-08-06T00:15:32.719Z,63.98
2018-08-06T00:18:01.114Z,64.54
2018-08-06T00:20:29.493Z,63.94
2018-08-06T00:22:57.901Z,64.51
2018-08-06T00:25:26.274Z,64.23
2018-08-06T00:27:54.673Z,64.92
2018-08-06T00:30:23.062Z,64.32
2018-08-06T00:32:51.622Z,65.13
2018-08-06T00:35:20.189Z,64.80
2018-08-06T00:37:48.599Z,64.40
2018-08-06T00:40:18.683Z,64.58
2018-08-06T00:42:47.706Z,64.15
2018-08-06T00:45:18.139Z,65.55
2018-08-06T00:47:47.018Z,65.45
2018-08-06T00:50:15.398Z,65.20
2018-08-06T00:52:43.800Z,65.40
2018-08-06T00:55:14.382Z,65.46
2018-08-06T00:57:43.102Z,65.93
2018-08-06T01:00:13.856Z,65.98
2018-08-06T01:02:42.276Z,66.53
2018-08-06T01:05:11.911Z,66.45
2018-08-06T01:07:40.577Z,66.06
2018-08-06T01:10:11.802Z,66.43
2018-08-06T01:12:40.822Z,66.43
2018-08-06T01:15:10.910Z,65.10
2018-08-06T01:17:39.295Z,65.88
2018-08-06T01:20:09.398Z,65.43
2018-08-06T01:22:37.926Z,65.35
2018-08-06T01:25:06.743Z,66.10
2018-08-06T01:27:35.714Z,66.62
2018-08-06T01:30:04.429Z,66.30
2018-08-06T01:32:32.809Z,66.46
2018-08-06T01:35:01.278Z,67.44
2018-08-06T01:37:29.646Z,67.37
2018-08-06T01:39:58.038Z,66.68
2018-08-06T01:42:26.403Z,66.37
2018-08-06T01:44:54.797Z,67.09
2018-08-06T01:47:23.162Z,66.78
2018-08-06T01:49:51.562Z,67.15
2018-08-06T01:52:19.938Z,66.77
2018-08-06T01:54:48.334Z,66.49
2018-08-06T01:57:16.707Z,67.00
2018-08-06T01:59:45.106Z,66.02
2018-08-06T02:02:13.473Z,65.99
2018-08-06T02:04:41.875Z,67.15
2018-08-06T02:07:10.386Z,66.41
2018-08-06T02:09:38.993Z,67.33
2018-08-06T02:12:07.760Z,67.45
2018-08-06T02:14:36.193Z,66.53
2018-08-06T02:17:04.575Z,66.76
2018-08-06T02:19:32.974Z,66.94
2018-08-06T02:22:01.353Z,66.53
2018-08-06T02:24:29.810Z,67.71
2018-08-06T02:26:58.190Z,67.18
2018-08-06T02:29:26.582Z,67.32
2018-08-06T02:31:55.010Z,68.23
2018-08-06T02:34:23.458Z,67.47
2018-08-06T02:36:51.834Z,67.72
2018-08-06T02:39:20.250Z,67.76
2018-08-06T02:41:48.631Z,68.85
2018-08-06T02:44:17.037Z,69.00
2018-08-06T02:46:45.421Z,68.58
2018-08-06T02:49:13.823Z,69.12
2018-08-06T02:51:42.240Z,68.49
2018-08-06T02:54:10.637Z,69.60
2018-08-06T02:56:39.082Z,68.88
2018-08-06T02:59:07.513Z,69.53
2018-08-06T03:01:35.902Z,69.24
2018-08-06T03:04:04.304Z,70.41
2018-08-06T03:06:32.686Z,70.83
2018-08-06T03:09:01.102Z,71.04
2018-08-06T03:11:29.505Z,71.58
2018-08-06T03:13:57.886Z,70.72
2018-08-06T03:16:26.286Z,71.17
2018-08-06T03:18:54.806Z,71.87
2018-08-06T03:21:23.198Z,71.39
2018-08-06T03:23:51.590Z,70.48
2018-08-06T03:26:20.004Z,70.38
2018-08-06T03:28:48.395Z,71.06
2018-08-06T03:31:16.790Z,70.85
2018-08-06T03:33:45.172Z,71.02
2018-08-06T03:36:13.570Z,70.88
2018-08-06T03:38:41.954Z,71.25
2018-08-06T03:41:10.358Z,70.53
2018-08-06T03:43:38.734Z,71.39
2018-08-06T03:46:07.146Z,71.07
2018-08-06T03:48:35.521Z,71.51
2018-08-06T03:51:03.914Z,70.66
2018-08-06T03:53:32.291Z,71.33
2018-08-06T03:56:00.714Z,71.29
2018-08-06T03:58:29.098Z,70.73
2018-08-06T04:00:57.500Z,70.44
2018-08-06T04:03:25.892Z,70.53
2018-08-06T04:05:54.291Z,70.74
2018-08-06T04:08:22.693Z,72.08
2018-08-06T04:10:51.115Z,71.50
2018-08-06T04:13:19.490Z,71.44
2018-08-06T04:15:47.878Z,71.97
2018-08-06T04:18:16.250Z,71.06
2018-08-06T04:20:44.641Z,71.57
2018-08-06T04:23:13.019Z,71.84
2018-08-06T04:25:41.437Z,70.79
2018-08-06T04:28:09.851Z,70.41
2018-08-06T04:30:38.358Z,70.54
2018-08-06T04:33:06.798Z,69.84
2018-08-06T04:35:35.166Z,70.33
2018-08-06T04:38:03.656Z,69.87
2018-08-06T04:40:32.050Z,69.06
2018-08-06T04:43:00.422Z,69.37
2018-08-06T04:45:28.840Z,69.53
2018-08-06T04:47:57.210Z,69.51
2018-08-06T04:50:25.614Z,69.66
2018-08-06T04:52:53.998Z,69.91
2018-08-06T04:55:22.421Z,70.01
2018-08-06T04:57:50.806Z,70.82
2018-08-06T05:00:19.207Z,70.72
2018-08-06T05:02:47.587Z,70.63
2018-08-06T05:05:15.994Z,70.98
2018-08-06T05:07:44.457Z,70.16
2018-08-06T05:10:12.858Z,70.99
2018-08-06T05:12:41.271Z,70.50
2018-08-06T05:15:09.664Z,71.15
2018-08-06T05:17:38.059Z,70.24
2018-08-06T05:20:06.435Z,70.96
2018-08-06T05:22:34.830Z,70.72
2018-08-06T05:25:03.218Z,70.24
2018-08-06T05:27:31.605Z,70.67
2018-08-06T05:29:59.979Z,69.98
2018-08-06T05:32:30.102Z,70.79
2018-08-06T05:34:58.478Z,70.58
2018-08-06T05:37:26.870Z,70.03
2018-08-06T05:39:55.269Z,70.26
2018-08-06T05:42:23.699Z,70.02
2018-08-06T05:44:52.082Z,69.30
2018-08-06T05:47:20.623Z,69.32
2018-08-06T05:49:48.989Z,69.94
2018-08-06T05:52:17.391Z,69.50
2018-08-06T05:54:45.767Z,69.26
2018-08-06T05:57:14.194Z,69.10
2018-08-06T05:59:42.566Z,69.24
2018-08-06T06:02:10.979Z,68.72
2018-08-06T06:04:39.368Z,68.42
2018-08-06T06:07:07.790Z,68.82
2018-08-06T06:09:36.162Z,68.36
2018-08-06T06:12:04.703Z,67.95
2018-08-06T06:14:33.090Z,67.59
2018-08-06T06:17:01.498Z,67.85
2018-08-06T06:19:29.871Z,66.76
2018-08-06T06:21:58.303Z,66.88
2018-08-06T06:24:26.743Z,65.87
2018-08-06T06:26:55.142Z,66.14
2018-08-06T06:29:23.522Z,66.12
2018-08-06T06:31:51.930Z,65.04
2018-08-06T06:34:20.312Z,65.68
2018-08-06T06:36:48.705Z,65.68
2018-08-06T06:39:17.083Z,64.48
2018-08-06T06:41:45.490Z,64.17
2018-08-06T06:44:13.869Z,63.52
2018-08-06T06:46:42.274Z,63.95
2018-08-06T06:49:10.984Z,63.79
2018-08-06T06:51:39.353Z,62.49
2018-08-06T06:54:07.769Z,62.43
2018-08-06T06:56:36.165Z,62.76
2018-08-06T06:59:04.565Z,61.70
2018-08-06T07:01:32.984Z,61.89
2018-08-06T07:04:01.354Z,60.90
2018-08-06T07:06:29.799Z,61.21
2018-08-06T07:08:58.170Z,60.26
2018-08-06T07:11:26.566Z,59.93
2018-08-06T07:13:55.070Z,59.08
2018-08-06T07:16:23.426Z,58.17
2018-08-06T07:18:51.881Z,57.92
2018-08-06T07:21:20.263Z,58.24
2018-08-06T07:23:48.679Z,56.99
2018-08-06T07:26:17.046Z,56.44
2018-08-06T07:28:45.476Z,56.20
2018-08-06T07:31:13.889Z,55.46
2018-08-06T07:33:42.315Z,56.35
2018-08-06T07:36:10.711Z,56.18
2018-08-06T07:38:39.131Z,54.95
2018-08-06T07:41:07.507Z,53.84
2018-08-06T07:43:35.925Z,54.20
2018-08-06T07:46:04.401Z,54.70
2018-08-06T07:48:32.798Z,53.78
2018-08-06T07:51:01.232Z,54.71
2018-08-06T07:53:29.630Z,53.93
2018-08-06T07:55:58.021Z,53.99
2018-08-06T07:58:26.415Z,53.43
2018-08-06T08:00:54.798Z,51.96
2018-08-06T08:03:23.194Z,52.82
2018-08-06T08:05:51.624Z,52.97
2018-08-06T08:08:20.027Z,52.02
2018-08-06T08:10:48.443Z,52.86
2018-08-06T08:13:16.846Z,53.00
2018-08-06T08:15:45.320Z,52.08
2018-08-06T08:18:13.748Z,51.33
2018-08-06T08:20:42.154Z,51.99
2018-08-06T08:23:10.570Z,51.09
2018-08-06T08:25:38.951Z,50.23
2018-08-06T08:28:07.391Z,50.91
2018-08-06T08:30:35.759Z,50.60
2018-08-06T08:33:04.162Z,50.35
2018-08-06T08:35:33.286Z,50.23
2018-08-06T08:38:01.797Z,49.81
2018-08-06T08:40:30.194Z,49.35
2018-08-06T08:42:58.594Z,49.62
2018-08-06T08:45:27.058Z,48.54
2018-08-06T08:47:55.450Z,49.04
2018-08-06T08:50:23.826Z,48.03
2018-08-06T08:52:52.237Z,48.72
2018-08-06T08:55:21.191Z,48.66
2018-08-06T08:57:49.595Z,47.05
2018-08-06T09:00:20.773Z,47.79
2018-08-06T09:02:49.887Z,47.21
2018-08-06T09:05:18.981Z,47.18
2018-08-06T09:07:47.822Z,47.35
2018-08-06T09:10:17.137Z,47.53
2018-08-06T09:12:45.674Z,46.58
2018-08-06T09:15:21.510Z,47.12
2018-08-06T09:17:49.886Z,46.81
2018-08-06T09:20:18.320Z,46.38
2018-08-06T09:22:47.134Z,46.07
2018-08-06T09:25:15.851Z,46.05
2018-08-06T09:27:47.586Z,45.35
2018-08-06T09:30:25.206Z,45.94
2018-08-06T09:32:54.881Z,44.95
2018-08-06T09:35:23.494Z,45.16
2018-08-06T09:37:52.555Z,44.41
2018-08-06T09:40:22.003Z,45.30
2018-08-06T09:42:50.962Z,44.34
2018-08-06T09:45:20.494Z,44.13
2018-08-06T09:47:50.293Z,45.00
2018-08-06T09:50:19.511Z,44.92
2018-08-06T09:52:48.878Z,43.61
2018-08-06T09:55:20.562Z,44.63
2018-08-06T09:57:49.670Z,44.49
2018-08-06T10:00:24.604Z,44.08
2018-08-06T10:02:53.771Z,43.67
2018-08-06T10:05:23.190Z,43.15
2018-08-06T10:07:51.602Z,43.44
2018-08-06T10:10:20.022Z,43.10
2018-08-06T10:12:48.510Z,42.22
2018-08-06T10:15:17.222Z,42.03
2018-08-06T10:17:46.497Z,42.87
2018-08-06T10:20:17.162Z,42.58
2018-08-06T10:22:45.598Z,41.88
2018-08-06T10:25:14.839Z,42.03
2018-08-06T10:27:44.106Z,41.02
2018-08-06T10:30:14.121Z,41.16
2018-08-06T10:32:42.658Z,40.09
2018-08-06T10:35:12.446Z,40.44
2018-08-06T10:37:40.852Z,40.51
2018-08-06T10:40:12.279Z,40.81
2018-08-06T10:42:41.255Z,40.96
2018-08-06T10:45:13.338Z,40.95
2018-08-06T10:47:42.206Z,40.73
2018-08-06T10:50:10.815Z,40.14
2018-08-06T10:52:39.197Z,40.88
2018-08-06T10:55:08.898Z,40.80
2018-08-06T10:57:37.770Z,41.05
2018-08-06T11:00:15.226Z,40.96
2018-08-06T11:02:43.795Z,41.09
2018-08-06T11:05:13.482Z,40.46
2018-08-06T11:07:41.863Z,40.76
2018-08-06T11:10:13.258Z,39.34
2018-08-06T11:12:41.650Z,39.21
2018-08-06T11:15:13.223Z,40.92
2018-08-06T11:17:41.619Z,39.26
2018-08-06T11:20:11.907Z,40.03
2018-08-06T11:22:40.715Z,39.02
2018-08-06T11:25:11.498Z,38.97
2018-08-06T11:27:39.902Z,39.36
2018-08-06T11:30:16.120Z,38.94
2018-08-06T11:32:44.880Z,38.84
2018-08-06T11:35:13.994Z,38.12
2018-08-06T11:37:42.654Z,38.17
2018-08-06T11:40:12.498Z,38.61
2018-08-06T11:42:41.782Z,38.15
2018-08-06T11:45:12.226Z,37.37
2018-08-06T11:47:40.606Z,37.78
2018-08-06T11:50:09.698Z,36.78
2018-08-06T11:52:38.086Z,37.99
2018-08-06T11:55:07.171Z,37.26
2018-08-06T11:57:35.587Z,37.48
2018-08-06T12:00:06.631Z,37.56
2018-08-06T12:02:35.006Z,37.21
2018-08-06T12:05:03.512Z,36.49
2018-08-06T12:07:31.910Z,36.91
2018-08-06T12:10:00.309Z,36.92
2018-08-06T12:12:28.710Z,36.83
2018-08-06T12:14:57.131Z,36.84
2018-08-06T12:17:25.515Z,35.67
2018-08-06T12:19:53.894Z,35.13
2018-08-06T12:22:22.294Z,36.14
2018-08-06T12:24:50.687Z,35.78
2018-08-06T12:27:19.144Z,35.39
2018-08-06T12:29:47.494Z,34.28
2018-08-06T12:32:15.898Z,34.98
2018-08-06T12:34:44.512Z,34.72
2018-08-06T12:37:12.935Z,34.42
2018-08-06T12:39:41.327Z,34.51
2018-08-06T12:42:09.776Z,35.31
2018-08-06T12:44:38.166Z,34.46
2018-08-06T12:47:06.614Z,34.04
2018-08-06T12:49:34.997Z,33.95
2018-08-06T12:52:03.394Z,34.78
2018-08-06T12:54:31.806Z,34.79
2018-08-06T12:57:00.228Z,34.94
2018-08-06T12:59:28.606Z,34.58
2018-08-06T13:01:57.013Z,33.51
2018-08-06T13:04:25.398Z,33.30
2018-08-06T13:06:53.917Z,33.50
2018-08-06T13:09:22.310Z,33.06
2018-08-06T13:11:50.731Z,33.21
2018-08-06T13:14:19.112Z,33.50
2018-08-06T13:16:47.537Z,33.55
2018-08-06T13:19:15.915Z,33.17
2018-08-06T13:21:44.306Z,33.03
2018-08-06T13:24:12.686Z,32.62
2018-08-06T13:26:41.090Z,32.20
2018-08-06T13:29:09.474Z,33.18
2018-08-06T13:31:37.883Z,32.17
2018-08-06T13:34:06.287Z,32.17
2018-08-06T13:36:34.696Z,32.73
2018-08-06T13:39:03.119Z,31.25
2018-08-06T13:41:31.548Z,30.88
2018-08-06T13:43:59.931Z,31.34
2018-08-06T13:46:28.330Z,31.60
2018-08-06T13:48:56.706Z,31.53
2018-08-06T13:51:25.103Z,30.95
2018-08-06T13:53:53.480Z,31.28
2018-08-06T13:56:21.898Z,30.86
2018-08-06T13:58:50.283Z,31.19
2018-08-06T14:01:18.686Z,30.72
2018-08-06T14:03:47.070Z,31.79
2018-08-06T14:06:15.499Z,31.06
2018-08-06T14:08:43.871Z,30.88
2018-08-06T14:11:12.325Z,30.57
2018-08-06T14:13:40.703Z,31.00
2018-08-06T14:16:09.090Z,30.78
2018-08-06T14:18:37.527Z,30.10
2018-08-06T14:21:05.909Z,30.81
2018-08-06T14:23:34.317Z,30.96
2018-08-06T14:26:02.775Z,30.88
2018-08-06T14:28:31.130Z,30.42
2018-08-06T14:30:59.519Z,30.96
2018-08-06T14:33:27.914Z,29.66
2018-08-06T14:35:56.286Z,30.30
2018-08-06T14:38:24.699Z,30.16
2018-08-06T14:40:53.075Z,30.04
2018-08-06T14:43:21.471Z,29.80
2018-08-06T14:45:49.854Z,29.43
2018-08-06T14:48:18.253Z,30.23
2018-08-06T14:50:46.654Z,29.33
2018-08-06T14:53:15.059Z,30.08
2018-08-06T14:55:43.429Z,29.52
2018-08-06T14:58:11.835Z,29.84
2018-08-06T15:00:40.250Z,29.40
2018-08-06T15:03:08.657Z,28.96
2018-08-06T15:05:37.046Z,29.35
2018-08-06T15:08:05.479Z,29.95
2018-08-06T15:10:33.882Z,29.30
2018-08-06T15:13:02.282Z,28.66
2018-08-06T15:15:30.670Z,28.55
2018-08-06T15:17:59.067Z,28.97
2018-08-06T15:20:27.457Z,29.37
2018-08-06T15:22:55.902Z,28.22
2018-08-06T15:25:24.567Z,28.84
2018-08-06T15:27:53.208Z,29.05
2018-08-06T15:30:21.610Z,28.82
2018-08-06T15:32:50.018Z,28.82
2018-08-06T15:35:18.404Z,28.58
2018-08-06T15:37:46.831Z,28.51
2018-08-06T15:40:17.023Z,28.80
2018-08-06T15:42:45.426Z,28.78
2018-08-06T15:45:14.298Z,28.82
2018-08-06T15:47:43.513Z,27.79
2018-08-06T15:50:13.819Z,27.81
2018-08-06T15:52:42.235Z,27.49
2018-08-06T15:55:10.752Z,28.54
2018-08-06T15:57:39.282Z,28.49
2018-08-06T16:00:10.141Z,27.35
2018-08-06T16:02:38.542Z,27.85
2018-08-06T16:05:07.873Z,27.79
2018-08-06T16:07:36.274Z,27.76
2018-08-06T16:10:05.404Z,27.53
2018-08-06T16:12:33.839Z,27.76
2018-08-06T16:15:02.266Z,28.08
2018-08-06T16:17:30.683Z,27.97
2018-08-06T16:19:59.062Z,27.66
2018-08-06T16:22:27.434Z,27.44
2018-08-06T16:24:55.951Z,27.27
2018-08-06T16:27:24.326Z,27.56
2018-08-06T16:29:52.747Z,27.25
2018-08-06T16:32:21.122Z,28.49
2018-08-06T16:34:49.526Z,28.11
2018-08-06T16:37:17.934Z,28.49
2018-08-06T16:39:46.334Z,27.23
2018-08-06T16:42:14.711Z,27.63
2018-08-06T16:44:43.116Z,27.81
2018-08-06T16:47:11.486Z,26.14
2018-08-06T16:49:39.905Z,27.19
2018-08-06T16:52:08.334Z,26.16
2018-08-06T16:54:36.738Z,25.42
2018-08-06T16:57:05.131Z,25.16
2018-08-06T16:59:33.543Z,25.37
2018-08-06T17:02:01.924Z,24.53
2018-08-06T17:04:30.330Z,24.10
2018-08-06T17:06:58.723Z,24.86
2018-08-06T17:09:27.152Z,24.79
2018-08-06T17:11:55.574Z,23.64
2018-08-06T17:14:23.990Z,24.13
2018-08-06T17:16:53.122Z,22.83
2018-08-06T17:19:21.538Z,22.45
2018-08-06T17:21:49.963Z,22.30
2018-08-06T17:24:18.389Z,22.82
2018-08-06T17:26:46.790Z,21.98
2018-08-06T17:29:15.193Z,22.32
2018-08-06T17:31:43.575Z,22.25
2018-08-06T17:34:11.977Z,22.60
2018-08-06T17:36:40.380Z,23.44
2018-08-06T17:39:10.308Z,23.41
2018-08-06T17:41:38.706Z,23.30
2018-08-06T17:44:07.139Z,24.43
2018-08-06T17:46:35.565Z,24.39
2018-08-06T17:49:04.841Z,24.79
2018-08-06T17:51:33.243Z,24.40
2018-08-06T17:54:01.699Z,25.28
2018-08-06T17:56:30.115Z,25.71
2018-08-06T17:58:58.531Z,26.62
2018-08-06T18:01:26.922Z,26.69
2018-08-06T18:03:55.318Z,28.02
2018-08-06T18:06:23.723Z,29.00
2018-08-06T18:08:52.140Z,27.94
2018-08-06T18:11:20.571Z,28.93
2018-08-06T18:13:49.106Z,29.79
2018-08-06T18:16:17.481Z,30.44
2018-08-06T18:18:45.879Z,29.96
2018-08-06T18:21:14.381Z,29.99
2018-08-06T18:23:42.783Z,30.01
2018-08-06T18:26:11.229Z,30.56
2018-08-06T18:28:39.614Z,31.66
2018-08-06T18:31:08.019Z,31.89
2018-08-06T18:33:36.403Z,30.81
2018-08-06T18:36:04.821Z,32.57
2018-08-06T18:38:33.210Z,32.15
2018-08-06T18:41:01.662Z,32.76
2018-08-06T18:43:30.063Z,33.26
2018-08-06T18:45:58.496Z,32.17
2018-08-06T18:48:26.870Z,32.82
2018-08-06T18:50:55.274Z,31.91
2018-08-06T18:53:23.669Z,32.73
2018-08-06T18:55:52.078Z,32.76
2018-08-06T18:58:20.465Z,33.43
2018-08-06T19:00:48.881Z,32.66
2018-08-06T19:03:17.298Z,33.96
2018-08-06T19:05:45.718Z,33.39
2018-08-06T19:08:14.136Z,34.50
2018-08-06T19:10:42.573Z,35.08
2018-08-06T19:13:16.263Z,34.31
2018-08-06T19:15:44.662Z,35.58
2018-08-06T19:18:18.386Z,35.59
2018-08-06T19:20:46.800Z,35.20
2018-08-06T19:23:15.208Z,36.08
2018-08-06T19:25:43.666Z,36.03
2018-08-06T19:28:12.030Z,36.24
2018-08-06T19:30:45.707Z,36.32
2018-08-06T19:33:14.091Z,37.35
2018-08-06T19:35:42.499Z,37.89
2018-08-06T19:38:10.876Z,37.90
2018-08-06T19:40:39.274Z,38.26
2018-08-06T19:43:13.079Z,37.77
2018-08-06T19:45:41.503Z,39.27
2018-08-06T19:48:09.892Z,39.03
2018-08-06T19:50:40.718Z,39.66
2018-08-06T19:53:09.254Z,39.30
2018-08-06T19:55:43.091Z,40.43
2018-08-06T19:58:11.495Z,40.28
2018-08-06T20:00:39.979Z,41.00
2018-08-06T20:03:08.365Z,41.24
2018-08-06T20:05:36.787Z,42.42
2018-08-06T20:08:05.330Z,43.00
2018-08-06T20:10:33.888Z,43.37
2018-08-06T20:13:02.246Z,43.34
2018-08-06T20:15:30.639Z,43.41
2018-08-06T20:17:59.036Z,43.42
2018-08-06T20:20:27.470Z,43.78
2018-08-06T20:22:55.851Z,44.93
2018-08-06T20:25:24.254Z,44.45
2018-08-06T20:27:52.631Z,43.88
2018-08-06T20:30:22.322Z,43.63
2018-08-06T20:32:50.745Z,44.06
2018-08-06T20:35:19.683Z,43.15
2018-08-06T20:37:48.099Z,44.15
2018-08-06T20:40:16.469Z,44.30
2018-08-06T20:42:45.881Z,44.97
2018-08-06T20:45:15.589Z,45.55
2018-08-06T20:47:44.384Z,46.10
2018-08-06T20:50:15.562Z,47.31
2018-08-06T20:52:44.515Z,47.44
2018-08-06T20:55:12.986Z,48.45
2018-08-06T20:57:41.781Z,47.88
2018-08-06T21:00:17.313Z,48.08
2018-08-06T21:02:46.355Z,48.25
2018-08-06T21:05:14.731Z,49.35
2018-08-06T21:07:43.201Z,48.83
2018-08-06T21:10:13.244Z,48.72
2018-08-06T21:12:41.646Z,48.47
2018-08-06T21:15:11.170Z,49.32
2018-08-06T21:17:39.874Z,49.11
2018-08-06T21:20:09.906Z,49.04
2018-08-06T21:22:38.317Z,49.98
2018-08-06T21:25:07.750Z,49.84
2018-08-06T21:27:36.146Z,50.05
2018-08-06T21:30:06.903Z,48.99
2018-08-06T21:32:35.310Z,49.52
2018-08-06T21:35:03.723Z,49.20
2018-08-06T21:37:32.122Z,50.12
2018-08-06T21:40:00.494Z,49.47
2018-08-06T21:42:28.902Z,50.29
2018-08-06T21:44:57.313Z,50.58
2018-08-06T21:47:25.717Z,50.78
2018-08-06T21:49:54.104Z,50.54
2018-08-06T21:52:22.497Z,51.03
2018-08-06T21:54:50.869Z,51.33
2018-08-06T21:57:19.275Z,50.75
2018-08-06T21:59:47.662Z,51.56
2018-08-06T22:02:16.070Z,50.72
2018-08-06T22:04:44.458Z,51.06
2018-08-06T22:07:12.862Z,50.83
2018-08-06T22:09:41.234Z,51.66
2018-08-06T22:12:09.661Z,51.71
2018-08-06T22:14:38.054Z,50.89
2018-08-06T22:17:06.634Z,51.02
2018-08-06T22:19:35.019Z,51.57
2018-08-06T22:22:03.414Z,51.58
2018-08-06T22:24:31.798Z,51.62
2018-08-06T22:27:00.199Z,51.59
2018-08-06T22:29:28.578Z,50.73
2018-08-06T22:31:56.994Z,51.17
2018-08-06T22:34:25.415Z,51.06
2018-08-06T22:36:53.822Z,50.98
2018-08-06T22:39:22.196Z,51.02
2018-08-06T22:41:50.603Z,51.88
2018-08-06T22:44:18.986Z,52.04
2018-08-06T22:46:47.363Z,51.88
2018-08-06T22:49:15.766Z,51.42
2018-08-06T22:51:44.134Z,52.10
2018-08-06T22:54:12.547Z,51.45
2018-08-06T22:56:40.925Z,51.59
2018-08-06T22:59:09.326Z,52.38
2018-08-06T23:01:37.702Z,52.22
2018-08-06T23:04:06.129Z,51.50
2018-08-06T23:06:34.530Z,51.68
2018-08-06T23:09:02.968Z,52.55
2018-08-06T23:11:31.366Z,52.52
2018-08-06T23:13:59.771Z,51.64
2018-08-06T23:16:28.142Z,52.51
2018-08-06T23:18:56.540Z,52.59
2018-08-06T23:21:24.918Z,52.12
2018-08-06T23:23:53.315Z,51.76
2018-08-06T23:26:21.707Z,52.40
2018-08-06T23:28:50.101Z,52.40
2018-08-06T23:31:18.479Z,51.73
2018-08-06T23:33:46.879Z,51.80
2018-08-06T23:36:15.258Z,52.52
2018-08-06T23:38:43.655Z,52.39
2018-08-06T23:41:12.027Z,52.69
2018-08-06T23:43:40.446Z,53.05
2018-08-06T23:46:08.809Z,53.19
2018-08-06T23:48:37.214Z,52.43
2018-08-06T23:51:05.727Z,52.45
2018-08-06T23:53:34.171Z,52.73
2018-08-06T23:56:02.543Z,53.14
2018-08-06T23:58:30.942Z,53.31
